Mart, Texas
Current Conditions -  °F | °C
As of 7:55 AM on Thursday 18 Dec 2014 (Local Time) from KCNW Reporting Station
Haze Haze  
Wind Chill: 46°   Ceiling: 300
Heat Index: 46°   Visibility: 0.75mi
Dew Point: 46°   Wind: 0mph
Humidity: 100%   Direction: NA
Pressure: 30.14"   Gusts: NA
Location:  31.54°N, 96.83°W
Report Text: KCNW 181355Z 00000KT 3/4SM BR OVC003 08/08 A3014
Loading
Personal Weather Stations






























Interactive Weather Map New forecast layout! Learn more

10-Day Weather Forecast

Advertisements
Track Severe Weather on mobile